sensor_id;sensor_type;location;lat;lon;timestamp;temperature;humidity
3734;HTU21D;1882;52.256;8.874;2024-02-26T00:00:08;3.20;99.90
3734;HTU21D;1882;52.256;8.874;2024-02-26T00:02:37;3.20;99.90
3734;HTU21D;1882;52.256;8.874;2024-02-26T00:05:05;3.10;99.90
3734;HTU21D;1882;52.256;8.874;2024-02-26T00:07:33;3.10;99.90
3734;HTU21D;1882;52.256;8.874;2024-02-26T00:10:00;3.10;99.90
3734;HTU21D;1882;52.256;8.874;2024-02-26T00:12:27;3.20;99.90
3734;HTU21D;1882;52.256;8.874;2024-02-26T00:14:54;3.20;99.90
3734;HTU21D;1882;52.256;8.874;2024-02-26T00:17:21;3.20;99.90
3734;HTU21D;1882;52.256;8.874;2024-02-26T00:19:47;3.20;99.90
3734;HTU21D;1882;52.256;8.874;2024-02-26T00:22:14;3.20;99.90
3734;HTU21D;1882;52.256;8.874;2024-02-26T00:24:41;3.20;99.90
3734;HTU21D;1882;52.256;8.874;2024-02-26T00:27:08;3.20;99.90
3734;HTU21D;1882;52.256;8.874;2024-02-26T00:29:35;3.20;99.90
3734;HTU21D;1882;52.256;8.874;2024-02-26T00:32:02;3.20;99.90
3734;HTU21D;1882;52.256;8.874;2024-02-26T00:34:30;3.20;99.90
3734;HTU21D;1882;52.256;8.874;2024-02-26T00:36:57;3.20;99.90
3734;HTU21D;1882;52.256;8.874;2024-02-26T00:39:24;3.10;99.90
3734;HTU21D;1882;52.256;8.874;2024-02-26T00:41:52;3.10;99.90
3734;HTU21D;1882;52.256;8.874;2024-02-26T00:44:19;3.10;99.90
3734;HTU21D;1882;52.256;8.874;2024-02-26T00:46:46;3.00;99.90
3734;HTU21D;1882;52.256;8.874;2024-02-26T00:49:13;3.00;99.90
3734;HTU21D;1882;52.256;8.874;2024-02-26T00:51:40;3.00;99.90
3734;HTU21D;1882;52.256;8.874;2024-02-26T00:54:07;3.00;99.90
3734;HTU21D;1882;52.256;8.874;2024-02-26T00:56:34;2.90;99.90
3734;HTU21D;1882;52.256;8.874;2024-02-26T00:59:00;2.90;99.90
3734;HTU21D;1882;52.256;8.874;2024-02-26T01:01:27;2.90;99.90
3734;HTU21D;1882;52.256;8.874;2024-02-26T01:03:55;2.90;99.90
3734;HTU21D;1882;52.256;8.874;2024-02-26T01:06:22;2.80;99.90
3734;HTU21D;1882;52.256;8.874;2024-02-26T01:08:49;2.80;99.90
3734;HTU21D;1882;52.256;8.874;2024-02-26T01:11:17;2.80;99.90
3734;HTU21D;1882;52.256;8.874;2024-02-26T01:13:44;2.80;99.90
3734;HTU21D;1882;52.256;8.874;2024-02-26T01:16:10;2.90;99.90
3734;HTU21D;1882;52.256;8.874;2024-02-26T01:18:37;2.90;99.90
3734;HTU21D;1882;52.256;8.874;2024-02-26T01:21:05;2.80;99.90
3734;HTU21D;1882;52.256;8.874;2024-02-26T01:23:35;2.80;99.90
3734;HTU21D;1882;52.256;8.874;2024-02-26T01:26:02;2.70;99.90
3734;HTU21D;1882;52.256;8.874;2024-02-26T01:28:30;2.60;99.90
3734;HTU21D;1882;52.256;8.874;2024-02-26T01:30:57;2.60;99.90
3734;HTU21D;1882;52.256;8.874;2024-02-26T01:33:26;2.60;99.90
3734;HTU21D;1882;52.256;8.874;2024-02-26T01:35:53;2.60;99.90
3734;HTU21D;1882;52.256;8.874;2024-02-26T01:38:20;2.60;99.90
3734;HTU21D;1882;52.256;8.874;2024-02-26T01:40:47;2.70;99.90
3734;HTU21D;1882;52.256;8.874;2024-02-26T01:43:13;2.70;99.90
3734;HTU21D;1882;52.256;8.874;2024-02-26T01:45:40;2.80;99.90
3734;HTU21D;1882;52.256;8.874;2024-02-26T01:48:07;2.90;99.90
3734;HTU21D;1882;52.256;8.874;2024-02-26T01:50:35;2.90;99.90
3734;HTU21D;1882;52.256;8.874;2024-02-26T01:53:03;3.00;99.90
3734;HTU21D;1882;52.256;8.874;2024-02-26T01:55:30;3.00;99.90
3734;HTU21D;1882;52.256;8.874;2024-02-26T01:57:57;3.00;99.90
3734;HTU21D;1882;52.256;8.874;2024-02-26T02:00:25;3.00;99.90
3734;HTU21D;1882;52.256;8.874;2024-02-26T02:02:52;3.00;99.90
3734;HTU21D;1882;52.256;8.874;2024-02-26T02:05:21;3.10;99.90
3734;HTU21D;1882;52.256;8.874;2024-02-26T02:07:49;3.10;99.90
3734;HTU21D;1882;52.256;8.874;2024-02-26T02:10:16;3.10;99.90
3734;HTU21D;1882;52.256;8.874;2024-02-26T02:12:45;3.20;99.90
3734;HTU21D;1882;52.256;8.874;2024-02-26T02:15:12;3.30;99.90
3734;HTU21D;1882;52.256;8.874;2024-02-26T02:17:39;3.30;99.90
3734;HTU21D;1882;52.256;8.874;2024-02-26T02:20:15;3.30;99.90
3734;HTU21D;1882;52.256;8.874;2024-02-26T02:22:46;3.30;99.90
3734;HTU21D;1882;52.256;8.874;2024-02-26T02:25:13;3.30;99.90
3734;HTU21D;1882;52.256;8.874;2024-02-26T02:27:42;3.30;99.90
3734;HTU21D;1882;52.256;8.874;2024-02-26T02:30:10;3.30;99.90
3734;HTU21D;1882;52.256;8.874;2024-02-26T02:32:40;3.20;99.90
3734;HTU21D;1882;52.256;8.874;2024-02-26T02:35:08;3.20;99.90
3734;HTU21D;1882;52.256;8.874;2024-02-26T02:37:35;3.10;99.90
3734;HTU21D;1882;52.256;8.874;2024-02-26T02:40:04;3.10;99.90
3734;HTU21D;1882;52.256;8.874;2024-02-26T02:42:31;3.10;99.90
3734;HTU21D;1882;52.256;8.874;2024-02-26T02:44:58;3.10;99.90
3734;HTU21D;1882;52.256;8.874;2024-02-26T02:47:25;3.10;99.90
3734;HTU21D;1882;52.256;8.874;2024-02-26T02:49:52;3.10;99.90
3734;HTU21D;1882;52.256;8.874;2024-02-26T02:52:19;3.10;99.90
3734;HTU21D;1882;52.256;8.874;2024-02-26T02:54:46;3.00;99.90
3734;HTU21D;1882;52.256;8.874;2024-02-26T02:57:13;3.00;99.90
3734;HTU21D;1882;52.256;8.874;2024-02-26T02:59:40;3.00;99.90
3734;HTU21D;1882;52.256;8.874;2024-02-26T03:02:08;3.00;99.90
3734;HTU21D;1882;52.256;8.874;2024-02-26T03:04:35;3.10;99.90
3734;HTU21D;1882;52.256;8.874;2024-02-26T03:07:02;3.10;99.90
3734;HTU21D;1882;52.256;8.874;2024-02-26T03:09:29;3.20;99.90
3734;HTU21D;1882;52.256;8.874;2024-02-26T03:11:56;3.20;99.90
3734;HTU21D;1882;52.256;8.874;2024-02-26T03:14:23;3.20;99.90
3734;HTU21D;1882;52.256;8.874;2024-02-26T03:16:53;3.30;99.90
3734;HTU21D;1882;52.256;8.874;2024-02-26T03:19:20;3.30;99.90
3734;HTU21D;1882;52.256;8.874;2024-02-26T03:21:47;3.40;99.90
3734;HTU21D;1882;52.256;8.874;2024-02-26T03:24:14;3.40;99.90
3734;HTU21D;1882;52.256;8.874;2024-02-26T03:26:41;3.40;99.90
3734;HTU21D;1882;52.256;8.874;2024-02-26T03:29:08;3.40;99.90
3734;HTU21D;1882;52.256;8.874;2024-02-26T03:31:35;3.50;99.90
3734;HTU21D;1882;52.256;8.874;2024-02-26T03:34:02;3.50;99.90
3734;HTU21D;1882;52.256;8.874;2024-02-26T03:36:29;3.50;99.90
3734;HTU21D;1882;52.256;8.874;2024-02-26T03:38:56;3.50;99.90
3734;HTU21D;1882;52.256;8.874;2024-02-26T03:41:23;3.50;99.90
3734;HTU21D;1882;52.256;8.874;2024-02-26T03:43:50;3.50;99.90
3734;HTU21D;1882;52.256;8.874;2024-02-26T03:46:17;3.50;99.90
3734;HTU21D;1882;52.256;8.874;2024-02-26T03:48:43;3.60;99.90
3734;HTU21D;1882;52.256;8.874;2024-02-26T03:51:11;3.60;99.90
3734;HTU21D;1882;52.256;8.874;2024-02-26T03:53:38;3.60;99.90
3734;HTU21D;1882;52.256;8.874;2024-02-26T03:56:05;3.60;99.90
3734;HTU21D;1882;52.256;8.874;2024-02-26T03:58:32;3.60;99.90
3734;HTU21D;1882;52.256;8.874;2024-02-26T04:01:00;3.60;99.90
3734;HTU21D;1882;52.256;8.874;2024-02-26T04:03:27;3.50;99.90
3734;HTU21D;1882;52.256;8.874;2024-02-26T04:05:54;3.60;99.90
3734;HTU21D;1882;52.256;8.874;2024-02-26T04:08:21;3.50;99.90
3734;HTU21D;1882;52.256;8.874;2024-02-26T04:10:49;3.60;99.90
3734;HTU21D;1882;52.256;8.874;2024-02-26T04:13:17;3.60;99.90
3734;HTU21D;1882;52.256;8.874;2024-02-26T04:15:44;3.50;99.90
3734;HTU21D;1882;52.256;8.874;2024-02-26T04:18:11;3.50;99.90
3734;HTU21D;1882;52.256;8.874;2024-02-26T04:20:38;3.50;99.90
3734;HTU21D;1882;52.256;8.874;2024-02-26T04:23:05;3.50;99.90
3734;HTU21D;1882;52.256;8.874;2024-02-26T04:25:32;3.50;99.90
3734;HTU21D;1882;52.256;8.874;2024-02-26T04:27:59;3.50;99.90
3734;HTU21D;1882;52.256;8.874;2024-02-26T04:30:26;3.50;99.90
3734;HTU21D;1882;52.256;8.874;2024-02-26T04:32:53;3.50;99.90
3734;HTU21D;1882;52.256;8.874;2024-02-26T04:35:20;3.60;99.90
3734;HTU21D;1882;52.256;8.874;2024-02-26T04:37:47;3.60;99.90
3734;HTU21D;1882;52.256;8.874;2024-02-26T04:40:14;3.60;99.90
3734;HTU21D;1882;52.256;8.874;2024-02-26T04:42:40;3.60;99.90
3734;HTU21D;1882;52.256;8.874;2024-02-26T04:45:08;3.70;99.90
3734;HTU21D;1882;52.256;8.874;2024-02-26T04:47:35;3.70;99.90
3734;HTU21D;1882;52.256;8.874;2024-02-26T04:50:02;3.70;99.90
3734;HTU21D;1882;52.256;8.874;2024-02-26T04:52:29;3.70;99.90
3734;HTU21D;1882;52.256;8.874;2024-02-26T04:54:56;3.70;99.90
3734;HTU21D;1882;52.256;8.874;2024-02-26T04:57:23;3.70;99.90
3734;HTU21D;1882;52.256;8.874;2024-02-26T04:59:50;3.60;99.90
3734;HTU21D;1882;52.256;8.874;2024-02-26T05:02:17;3.70;99.90
3734;HTU21D;1882;52.256;8.874;2024-02-26T05:04:44;3.70;99.90
3734;HTU21D;1882;52.256;8.874;2024-02-26T05:07:11;3.70;99.90
3734;HTU21D;1882;52.256;8.874;2024-02-26T05:09:40;3.60;99.90
3734;HTU21D;1882;52.256;8.874;2024-02-26T05:12:09;3.60;99.90
3734;HTU21D;1882;52.256;8.874;2024-02-26T05:14:36;3.60;99.90
3734;HTU21D;1882;52.256;8.874;2024-02-26T05:17:03;3.60;99.90
3734;HTU21D;1882;52.256;8.874;2024-02-26T05:19:30;3.60;99.90
3734;HTU21D;1882;52.256;8.874;2024-02-26T05:21:57;3.60;99.90
3734;HTU21D;1882;52.256;8.874;2024-02-26T05:24:24;3.50;99.90
3734;HTU21D;1882;52.256;8.874;2024-02-26T05:26:50;3.50;99.90
3734;HTU21D;1882;52.256;8.874;2024-02-26T05:29:17;3.50;99.90
3734;HTU21D;1882;52.256;8.874;2024-02-26T05:31:44;3.50;99.90
3734;HTU21D;1882;52.256;8.874;2024-02-26T05:34:11;3.50;99.90
3734;HTU21D;1882;52.256;8.874;2024-02-26T05:36:38;3.40;99.90
3734;HTU21D;1882;52.256;8.874;2024-02-26T05:39:05;3.40;99.90
3734;HTU21D;1882;52.256;8.874;2024-02-26T05:41:35;3.40;99.90
3734;HTU21D;1882;52.256;8.874;2024-02-26T05:44:02;3.40;99.90
3734;HTU21D;1882;52.256;8.874;2024-02-26T05:46:30;3.40;99.90
3734;HTU21D;1882;52.256;8.874;2024-02-26T05:48:57;3.40;99.90
3734;HTU21D;1882;52.256;8.874;2024-02-26T05:51:24;3.40;99.90
3734;HTU21D;1882;52.256;8.874;2024-02-26T05:53:51;3.50;99.90
3734;HTU21D;1882;52.256;8.874;2024-02-26T05:56:22;3.50;99.90
3734;HTU21D;1882;52.256;8.874;2024-02-26T05:58:49;3.50;99.90
3734;HTU21D;1882;52.256;8.874;2024-02-26T06:01:16;3.50;99.90
3734;HTU21D;1882;52.256;8.874;2024-02-26T06:03:44;3.60;99.90
3734;HTU21D;1882;52.256;8.874;2024-02-26T06:06:11;3.60;99.90
3734;HTU21D;1882;52.256;8.874;2024-02-26T06:08:39;3.60;99.90
3734;HTU21D;1882;52.256;8.874;2024-02-26T06:11:06;3.70;99.90
3734;HTU21D;1882;52.256;8.874;2024-02-26T06:13:36;3.70;99.90
3734;HTU21D;1882;52.256;8.874;2024-02-26T06:16:04;3.70;99.90
3734;HTU21D;1882;52.256;8.874;2024-02-26T06:18:31;3.80;99.90
3734;HTU21D;1882;52.256;8.874;2024-02-26T06:20:58;3.80;99.90
3734;HTU21D;1882;52.256;8.874;2024-02-26T06:23:26;3.80;99.90
3734;HTU21D;1882;52.256;8.874;2024-02-26T06:25:53;3.80;99.90
3734;HTU21D;1882;52.256;8.874;2024-02-26T06:28:20;3.80;99.90
3734;HTU21D;1882;52.256;8.874;2024-02-26T06:30:47;3.80;99.90
3734;HTU21D;1882;52.256;8.874;2024-02-26T06:33:13;3.80;99.90
3734;HTU21D;1882;52.256;8.874;2024-02-26T06:35:41;3.90;99.90
3734;HTU21D;1882;52.256;8.874;2024-02-26T06:38:08;3.90;99.90
3734;HTU21D;1882;52.256;8.874;2024-02-26T06:40:36;3.90;99.90
3734;HTU21D;1882;52.256;8.874;2024-02-26T06:43:03;3.90;99.90
3734;HTU21D;1882;52.256;8.874;2024-02-26T06:45:30;3.80;99.90
3734;HTU21D;1882;52.256;8.874;2024-02-26T06:47:57;3.80;99.90
3734;HTU21D;1882;52.256;8.874;2024-02-26T06:50:25;3.80;99.90
3734;HTU21D;1882;52.256;8.874;2024-02-26T06:52:52;3.80;99.90
3734;HTU21D;1882;52.256;8.874;2024-02-26T06:55:18;3.90;99.90
3734;HTU21D;1882;52.256;8.874;2024-02-26T06:57:45;3.90;99.90
3734;HTU21D;1882;52.256;8.874;2024-02-26T07:00:13;3.90;99.90
3734;HTU21D;1882;52.256;8.874;2024-02-26T07:02:43;4.00;99.90
3734;HTU21D;1882;52.256;8.874;2024-02-26T07:05:10;4.00;99.90
3734;HTU21D;1882;52.256;8.874;2024-02-26T07:07:37;4.10;99.90
3734;HTU21D;1882;52.256;8.874;2024-02-26T07:10:04;4.10;99.90
3734;HTU21D;1882;52.256;8.874;2024-02-26T07:12:32;4.10;99.90
3734;HTU21D;1882;52.256;8.874;2024-02-26T07:15:00;4.20;99.90
3734;HTU21D;1882;52.256;8.874;2024-02-26T07:17:27;4.20;99.90
3734;HTU21D;1882;52.256;8.874;2024-02-26T07:19:54;4.20;99.90
3734;HTU21D;1882;52.256;8.874;2024-02-26T07:22:22;4.30;99.90
3734;HTU21D;1882;52.256;8.874;2024-02-26T07:24:48;4.30;99.90
3734;HTU21D;1882;52.256;8.874;2024-02-26T07:27:15;4.30;99.90
3734;HTU21D;1882;52.256;8.874;2024-02-26T07:29:44;4.30;99.90
3734;HTU21D;1882;52.256;8.874;2024-02-26T07:32:11;4.40;99.90
3734;HTU21D;1882;52.256;8.874;2024-02-26T07:34:38;4.40;99.90
3734;HTU21D;1882;52.256;8.874;2024-02-26T07:37:08;4.40;99.90
3734;HTU21D;1882;52.256;8.874;2024-02-26T07:39:35;4.50;99.80
3734;HTU21D;1882;52.256;8.874;2024-02-26T07:42:03;4.50;99.80
3734;HTU21D;1882;52.256;8.874;2024-02-26T07:44:31;4.50;99.90
3734;HTU21D;1882;52.256;8.874;2024-02-26T07:46:58;4.50;99.40
3734;HTU21D;1882;52.256;8.874;2024-02-26T07:49:25;4.50;99.20
3734;HTU21D;1882;52.256;8.874;2024-02-26T07:51:52;4.60;99.70
3734;HTU21D;1882;52.256;8.874;2024-02-26T07:54:19;4.70;98.90
3734;HTU21D;1882;52.256;8.874;2024-02-26T07:56:46;4.70;99.10
3734;HTU21D;1882;52.256;8.874;2024-02-26T07:59:13;4.70;98.30
3734;HTU21D;1882;52.256;8.874;2024-02-26T08:01:40;4.70;99.40
3734;HTU21D;1882;52.256;8.874;2024-02-26T08:04:09;4.80;98.50
3734;HTU21D;1882;52.256;8.874;2024-02-26T08:06:36;4.80;98.00
3734;HTU21D;1882;52.256;8.874;2024-02-26T08:09:04;4.90;98.90
3734;HTU21D;1882;52.256;8.874;2024-02-26T08:11:31;4.90;98.10
3734;HTU21D;1882;52.256;8.874;2024-02-26T08:13:58;4.90;98.00
3734;HTU21D;1882;52.256;8.874;2024-02-26T08:16:26;5.00;97.40
3734;HTU21D;1882;52.256;8.874;2024-02-26T08:18:53;5.00;98.00
3734;HTU21D;1882;52.256;8.874;2024-02-26T08:21:21;5.00;97.70
3734;HTU21D;1882;52.256;8.874;2024-02-26T08:23:47;5.00;97.50
3734;HTU21D;1882;52.256;8.874;2024-02-26T08:26:14;5.00;97.40
3734;HTU21D;1882;52.256;8.874;2024-02-26T08:28:41;5.00;97.90
3734;HTU21D;1882;52.256;8.874;2024-02-26T08:31:08;5.10;97.80
3734;HTU21D;1882;52.256;8.874;2024-02-26T08:33:35;5.10;97.50
3734;HTU21D;1882;52.256;8.874;2024-02-26T08:36:06;5.10;97.30
3734;HTU21D;1882;52.256;8.874;2024-02-26T08:38:33;5.10;97.40
3734;HTU21D;1882;52.256;8.874;2024-02-26T08:41:02;5.10;97.70
3734;HTU21D;1882;52.256;8.874;2024-02-26T08:43:32;5.10;98.00
3734;HTU21D;1882;52.256;8.874;2024-02-26T08:45:59;5.20;98.30
3734;HTU21D;1882;52.256;8.874;2024-02-26T08:48:26;5.30;98.20
3734;HTU21D;1882;52.256;8.874;2024-02-26T08:50:53;5.30;97.40
3734;HTU21D;1882;52.256;8.874;2024-02-26T08:53:20;5.30;98.20
3734;HTU21D;1882;52.256;8.874;2024-02-26T08:55:57;5.30;97.60
3734;HTU21D;1882;52.256;8.874;2024-02-26T08:58:24;5.40;97.40
3734;HTU21D;1882;52.256;8.874;2024-02-26T09:00:51;5.50;97.80
3734;HTU21D;1882;52.256;8.874;2024-02-26T09:03:18;5.50;96.50
3734;HTU21D;1882;52.256;8.874;2024-02-26T09:05:45;5.60;96.00
3734;HTU21D;1882;52.256;8.874;2024-02-26T09:08:14;5.60;96.80
3734;HTU21D;1882;52.256;8.874;2024-02-26T09:10:44;5.60;96.00
3734;HTU21D;1882;52.256;8.874;2024-02-26T09:13:11;5.60;97.10
3734;HTU21D;1882;52.256;8.874;2024-02-26T09:15:38;5.70;96.70
3734;HTU21D;1882;52.256;8.874;2024-02-26T09:18:05;5.80;96.10
3734;HTU21D;1882;52.256;8.874;2024-02-26T09:20:32;6.00;95.60
3734;HTU21D;1882;52.256;8.874;2024-02-26T09:22:59;6.10;94.40
3734;HTU21D;1882;52.256;8.874;2024-02-26T09:25:26;6.10;93.70
3734;HTU21D;1882;52.256;8.874;2024-02-26T09:27:52;6.10;92.60
3734;HTU21D;1882;52.256;8.874;2024-02-26T09:30:20;6.10;93.20
3734;HTU21D;1882;52.256;8.874;2024-02-26T09:32:47;6.10;93.60
3734;HTU21D;1882;52.256;8.874;2024-02-26T09:35:16;6.20;92.20
3734;HTU21D;1882;52.256;8.874;2024-02-26T09:37:43;6.20;92.60
3734;HTU21D;1882;52.256;8.874;2024-02-26T09:40:11;6.20;92.10
3734;HTU21D;1882;52.256;8.874;2024-02-26T09:42:45;6.30;92.90
3734;HTU21D;1882;52.256;8.874;2024-02-26T09:45:19;6.30;91.20
3734;HTU21D;1882;52.256;8.874;2024-02-26T09:47:48;6.40;90.90
3734;HTU21D;1882;52.256;8.874;2024-02-26T09:50:17;6.40;91.20
3734;HTU21D;1882;52.256;8.874;2024-02-26T09:52:45;6.40;90.70
3734;HTU21D;1882;52.256;8.874;2024-02-26T09:55:12;6.40;91.80
3734;HTU21D;1882;52.256;8.874;2024-02-26T09:57:42;6.40;90.00
3734;HTU21D;1882;52.256;8.874;2024-02-26T10:00:17;6.40;90.80
3734;HTU21D;1882;52.256;8.874;2024-02-26T10:02:46;6.50;91.60
3734;HTU21D;1882;52.256;8.874;2024-02-26T10:05:18;6.50;90.20
3734;HTU21D;1882;52.256;8.874;2024-02-26T10:07:49;6.50;87.10
3734;HTU21D;1882;52.256;8.874;2024-02-26T10:10:19;6.50;90.60
3734;HTU21D;1882;52.256;8.874;2024-02-26T10:12:46;6.60;90.50
3734;HTU21D;1882;52.256;8.874;2024-02-26T10:15:13;6.70;90.50
3734;HTU21D;1882;52.256;8.874;2024-02-26T10:17:41;6.70;87.90
3734;HTU21D;1882;52.256;8.874;2024-02-26T10:20:18;6.80;89.20
3734;HTU21D;1882;52.256;8.874;2024-02-26T10:22:48;6.80;86.50
3734;HTU21D;1882;52.256;8.874;2024-02-26T10:25:15;6.90;86.80
3734;HTU21D;1882;52.256;8.874;2024-02-26T10:27:43;7.00;85.40
3734;HTU21D;1882;52.256;8.874;2024-02-26T10:30:17;7.00;84.90
3734;HTU21D;1882;52.256;8.874;2024-02-26T10:32:49;7.00;86.70
3734;HTU21D;1882;52.256;8.874;2024-02-26T10:35:17;7.10;86.60
3734;HTU21D;1882;52.256;8.874;2024-02-26T10:37:54;7.10;86.00
3734;HTU21D;1882;52.256;8.874;2024-02-26T10:40:21;7.10;83.40
3734;HTU21D;1882;52.256;8.874;2024-02-26T10:42:48;7.10;84.10
3734;HTU21D;1882;52.256;8.874;2024-02-26T10:45:15;7.10;82.70
3734;HTU21D;1882;52.256;8.874;2024-02-26T10:47:42;7.20;83.20
3734;HTU21D;1882;52.256;8.874;2024-02-26T10:50:09;7.30;82.50
3734;HTU21D;1882;52.256;8.874;2024-02-26T10:52:40;7.30;81.80
3734;HTU21D;1882;52.256;8.874;2024-02-26T10:55:15;7.50;83.30
3734;HTU21D;1882;52.256;8.874;2024-02-26T10:57:46;7.50;82.70
3734;HTU21D;1882;52.256;8.874;2024-02-26T11:00:15;7.60;83.30
3734;HTU21D;1882;52.256;8.874;2024-02-26T11:02:45;7.70;77.70
3734;HTU21D;1882;52.256;8.874;2024-02-26T11:05:14;7.80;80.10
3734;HTU21D;1882;52.256;8.874;2024-02-26T11:07:41;7.90;78.10
3734;HTU21D;1882;52.256;8.874;2024-02-26T11:10:09;7.90;77.90
3734;HTU21D;1882;52.256;8.874;2024-02-26T11:12:39;8.00;74.90
3734;HTU21D;1882;52.256;8.874;2024-02-26T11:15:06;8.10;76.80
3734;HTU21D;1882;52.256;8.874;2024-02-26T11:17:35;7.90;72.20
3734;HTU21D;1882;52.256;8.874;2024-02-26T11:20:04;7.90;71.60
3734;HTU21D;1882;52.256;8.874;2024-02-26T11:22:32;8.00;76.00
3734;HTU21D;1882;52.256;8.874;2024-02-26T11:25:00;8.20;73.30
3734;HTU21D;1882;52.256;8.874;2024-02-26T11:27:32;8.30;71.50
3734;HTU21D;1882;52.256;8.874;2024-02-26T11:30:02;8.20;67.80
3734;HTU21D;1882;52.256;8.874;2024-02-26T11:32:31;8.20;69.20
3734;HTU21D;1882;52.256;8.874;2024-02-26T11:34:58;8.00;68.70
3734;HTU21D;1882;52.256;8.874;2024-02-26T11:37:26;8.00;71.70
3734;HTU21D;1882;52.256;8.874;2024-02-26T11:39:53;8.10;71.30
3734;HTU21D;1882;52.256;8.874;2024-02-26T11:42:24;8.10;69.20
3734;HTU21D;1882;52.256;8.874;2024-02-26T11:44:56;8.20;68.60
3734;HTU21D;1882;52.256;8.874;2024-02-26T11:47:28;8.30;69.40
3734;HTU21D;1882;52.256;8.874;2024-02-26T11:49:55;8.50;67.90
3734;HTU21D;1882;52.256;8.874;2024-02-26T11:52:22;8.40;67.20
3734;HTU21D;1882;52.256;8.874;2024-02-26T11:54:53;8.30;65.70
3734;HTU21D;1882;52.256;8.874;2024-02-26T11:57:39;8.30;65.90
3734;HTU21D;1882;52.256;8.874;2024-02-26T12:02:52;8.20;67.80
3734;HTU21D;1882;52.256;8.874;2024-02-26T12:05:31;8.20;65.50
3734;HTU21D;1882;52.256;8.874;2024-02-26T12:08:04;8.30;65.30
3734;HTU21D;1882;52.256;8.874;2024-02-26T12:10:39;8.30;66.00
3734;HTU21D;1882;52.256;8.874;2024-02-26T12:13:11;8.40;66.00
3734;HTU21D;1882;52.256;8.874;2024-02-26T12:15:57;8.40;64.00
3734;HTU21D;1882;52.256;8.874;2024-02-26T12:18:26;8.30;61.60
3734;HTU21D;1882;52.256;8.874;2024-02-26T12:21:00;8.30;62.60
3734;HTU21D;1882;52.256;8.874;2024-02-26T12:23:28;8.30;62.90
3734;HTU21D;1882;52.256;8.874;2024-02-26T12:26:01;8.30;63.20
3734;HTU21D;1882;52.256;8.874;2024-02-26T12:28:33;8.20;64.30
3734;HTU21D;1882;52.256;8.874;2024-02-26T12:31:00;8.20;63.20
3734;HTU21D;1882;52.256;8.874;2024-02-26T12:33:28;8.30;63.50
3734;HTU21D;1882;52.256;8.874;2024-02-26T12:35:56;8.30;62.50
3734;HTU21D;1882;52.256;8.874;2024-02-26T12:38:24;8.30;63.50
3734;HTU21D;1882;52.256;8.874;2024-02-26T12:40:51;8.40;63.60
3734;HTU21D;1882;52.256;8.874;2024-02-26T12:43:18;8.40;62.50
3734;HTU21D;1882;52.256;8.874;2024-02-26T12:45:45;8.50;61.40
3734;HTU21D;1882;52.256;8.874;2024-02-26T12:48:14;8.60;61.60
3734;HTU21D;1882;52.256;8.874;2024-02-26T12:50:45;8.60;60.70
3734;HTU21D;1882;52.256;8.874;2024-02-26T12:53:14;8.70;61.80
3734;HTU21D;1882;52.256;8.874;2024-02-26T12:55:41;8.70;60.60
3734;HTU21D;1882;52.256;8.874;2024-02-26T12:58:09;8.80;61.70
3734;HTU21D;1882;52.256;8.874;2024-02-26T13:00:36;8.90;60.70
3734;HTU21D;1882;52.256;8.874;2024-02-26T13:03:04;8.90;60.00
3734;HTU21D;1882;52.256;8.874;2024-02-26T13:05:31;8.90;59.50
3734;HTU21D;1882;52.256;8.874;2024-02-26T13:07:59;9.00;59.60
3734;HTU21D;1882;52.256;8.874;2024-02-26T13:10:26;9.00;61.00
3734;HTU21D;1882;52.256;8.874;2024-02-26T13:12:54;9.00;59.70
3734;HTU21D;1882;52.256;8.874;2024-02-26T13:15:21;8.90;59.60
3734;HTU21D;1882;52.256;8.874;2024-02-26T13:17:50;8.90;59.60
3734;HTU21D;1882;52.256;8.874;2024-02-26T13:20:30;8.80;61.00
3734;HTU21D;1882;52.256;8.874;2024-02-26T13:23:05;8.80;59.60
3734;HTU21D;1882;52.256;8.874;2024-02-26T13:25:34;8.90;59.70
3734;HTU21D;1882;52.256;8.874;2024-02-26T13:28:09;8.80;60.40
3734;HTU21D;1882;52.256;8.874;2024-02-26T13:30:39;8.80;60.00
3734;HTU21D;1882;52.256;8.874;2024-02-26T13:33:11;8.90;60.20
3734;HTU21D;1882;52.256;8.874;2024-02-26T13:35:39;8.90;59.60
3734;HTU21D;1882;52.256;8.874;2024-02-26T13:38:06;8.90;58.20
3734;HTU21D;1882;52.256;8.874;2024-02-26T13:40:33;9.00;59.40
3734;HTU21D;1882;52.256;8.874;2024-02-26T13:43:01;9.00;57.90
3734;HTU21D;1882;52.256;8.874;2024-02-26T13:45:28;9.00;58.60
3734;HTU21D;1882;52.256;8.874;2024-02-26T13:48:05;9.00;57.60
3734;HTU21D;1882;52.256;8.874;2024-02-26T13:50:32;9.00;58.30
3734;HTU21D;1882;52.256;8.874;2024-02-26T13:52:59;9.00;58.80
3734;HTU21D;1882;52.256;8.874;2024-02-26T13:55:26;9.00;57.60
3734;HTU21D;1882;52.256;8.874;2024-02-26T13:57:55;9.00;57.50
3734;HTU21D;1882;52.256;8.874;2024-02-26T14:00:24;9.00;59.10
3734;HTU21D;1882;52.256;8.874;2024-02-26T14:02:51;9.10;56.90
3734;HTU21D;1882;52.256;8.874;2024-02-26T14:05:18;9.10;57.20
3734;HTU21D;1882;52.256;8.874;2024-02-26T14:07:45;9.00;55.80
3734;HTU21D;1882;52.256;8.874;2024-02-26T14:10:17;9.00;56.80
3734;HTU21D;1882;52.256;8.874;2024-02-26T14:12:44;9.00;56.10
3734;HTU21D;1882;52.256;8.874;2024-02-26T14:15:11;9.00;57.40
3734;HTU21D;1882;52.256;8.874;2024-02-26T14:17:38;9.00;56.70
3734;HTU21D;1882;52.256;8.874;2024-02-26T14:20:06;8.90;55.70
3734;HTU21D;1882;52.256;8.874;2024-02-26T14:22:34;8.90;55.40
3734;HTU21D;1882;52.256;8.874;2024-02-26T14:25:01;8.90;57.20
3734;HTU21D;1882;52.256;8.874;2024-02-26T14:27:28;8.90;56.20
3734;HTU21D;1882;52.256;8.874;2024-02-26T14:29:55;8.90;57.30
3734;HTU21D;1882;52.256;8.874;2024-02-26T14:32:22;9.00;57.70
3734;HTU21D;1882;52.256;8.874;2024-02-26T14:34:49;9.00;57.40
3734;HTU21D;1882;52.256;8.874;2024-02-26T14:37:16;9.00;57.30
3734;HTU21D;1882;52.256;8.874;2024-02-26T14:39:43;9.00;56.10
3734;HTU21D;1882;52.256;8.874;2024-02-26T14:42:10;9.00;57.20
3734;HTU21D;1882;52.256;8.874;2024-02-26T14:44:37;9.00;56.70
3734;HTU21D;1882;52.256;8.874;2024-02-26T14:47:04;9.00;56.90
3734;HTU21D;1882;52.256;8.874;2024-02-26T14:49:31;9.00;56.50
3734;HTU21D;1882;52.256;8.874;2024-02-26T14:51:58;9.00;56.70
3734;HTU21D;1882;52.256;8.874;2024-02-26T14:54:25;9.00;58.10
3734;HTU21D;1882;52.256;8.874;2024-02-26T14:56:52;9.00;55.60
3734;HTU21D;1882;52.256;8.874;2024-02-26T14:59:19;9.00;56.80
3734;HTU21D;1882;52.256;8.874;2024-02-26T15:01:46;9.00;57.10
3734;HTU21D;1882;52.256;8.874;2024-02-26T15:04:14;8.90;56.90
3734;HTU21D;1882;52.256;8.874;2024-02-26T15:06:41;8.90;57.60
3734;HTU21D;1882;52.256;8.874;2024-02-26T15:09:09;8.90;56.90
3734;HTU21D;1882;52.256;8.874;2024-02-26T15:11:39;8.90;56.30
3734;HTU21D;1882;52.256;8.874;2024-02-26T15:14:07;8.90;55.80
3734;HTU21D;1882;52.256;8.874;2024-02-26T15:16:34;8.80;56.80
3734;HTU21D;1882;52.256;8.874;2024-02-26T15:19:01;8.90;56.80
3734;HTU21D;1882;52.256;8.874;2024-02-26T15:21:30;8.90;56.50
3734;HTU21D;1882;52.256;8.874;2024-02-26T15:23:57;8.90;56.40
3734;HTU21D;1882;52.256;8.874;2024-02-26T15:26:33;8.90;56.30
3734;HTU21D;1882;52.256;8.874;2024-02-26T15:29:01;8.80;57.00
3734;HTU21D;1882;52.256;8.874;2024-02-26T15:31:28;8.90;56.80
3734;HTU21D;1882;52.256;8.874;2024-02-26T15:33:55;8.80;56.10
3734;HTU21D;1882;52.256;8.874;2024-02-26T15:36:22;8.90;56.20
3734;HTU21D;1882;52.256;8.874;2024-02-26T15:38:49;8.90;55.90
3734;HTU21D;1882;52.256;8.874;2024-02-26T15:41:16;8.90;55.90
3734;HTU21D;1882;52.256;8.874;2024-02-26T15:43:43;8.90;55.60
3734;HTU21D;1882;52.256;8.874;2024-02-26T15:46:10;8.80;55.90
3734;HTU21D;1882;52.256;8.874;2024-02-26T15:48:37;8.80;54.60
3734;HTU21D;1882;52.256;8.874;2024-02-26T15:51:05;8.80;54.80
3734;HTU21D;1882;52.256;8.874;2024-02-26T15:53:32;8.90;56.30
3734;HTU21D;1882;52.256;8.874;2024-02-26T15:56:00;8.80;56.40
3734;HTU21D;1882;52.256;8.874;2024-02-26T15:58:27;8.80;56.40
3734;HTU21D;1882;52.256;8.874;2024-02-26T16:00:54;8.80;56.20
3734;HTU21D;1882;52.256;8.874;2024-02-26T16:03:23;8.70;55.10
3734;HTU21D;1882;52.256;8.874;2024-02-26T16:05:50;8.70;56.30
3734;HTU21D;1882;52.256;8.874;2024-02-26T16:08:20;8.70;57.30